Flight Track Log - Related Links

Times and Time Zones

All times are in EDT time to prevent confusion due to time zone crossing. See the SWA22 flight status page for this flight to view local times or setup timezone preferences in your user account.

Time Position Orientation Groundspeed Altitude Reporting Facility
EDT Latitude Longitude Course Direction KTS MPH feet Rate Location/Type
Mon 02:17:50 PM 32.7833 -96.7833 138° Southeast 217 250 4,200  Level Dallas / Fort Worth TRACON
Mon 02:18:50 PM 32.7333 -96.7833 180° South 245 282 7,000 2,387 Climbing Dallas / Fort Worth TRACON
Mon 02:20:51 PM 32.5839 -96.8733 207° Southwest 291 335 11,400 2,354 Climbing Fort Worth Center
Mon 02:21:51 PM 32.5089 -96.9183 207° Southwest 323 372 14,100 2,800 Climbing Fort Worth Center
Mon 02:22:51 PM 32.4150 -96.9728 206° Southwest 335 386 17,000 2,750 Climbing Fort Worth Center
Mon 02:23:51 PM 32.3358 -97.0175 206° Southwest 343 395 19,600 2,650 Climbing Fort Worth Center
Mon 02:24:51 PM 32.2358 -97.0694 204° Southwest 354 407 22,300 2,100 Climbing Fort Worth Center
Mon 02:26:51 PM 32.0439 -97.1461 199° South 381 438 25,900 1,667 Climbing Fort Worth Center
Mon 02:27:51 PM 31.9375 -97.1758 193° South 396 456 27,300 1,224 Climbing Fort Worth Center
Mon 02:30:12 PM 31.6697 -97.2369 191° South 419 482 30,000 798 Climbing Houston Center
Mon 02:31:14 PM 31.5564 -97.2639 191° South 414 476 30,000 -629 Level Houston Center
Mon 02:32:16 PM 31.4503 -97.2889 191° South 389 448 28,700 -1,065 Descending Houston Center
Mon 02:33:18 PM 31.3453 -97.3125 191° South 382 440 27,800 -968 Descending Houston Center
Mon 02:34:20 PM 31.2189 -97.3414 191° South 392 451 26,700 -1,008 Descending Houston Center
Mon 02:35:23 PM 31.1086 -97.3664 191° South 400 460 25,700 -912 Descending Houston Center
Mon 02:36:25 PM 31.0003 -97.3908 191° South 400 460 24,800 -968 Descending Houston Center
Mon 02:37:27 PM 30.8933 -97.4147 191° South 397 457 23,700 -1,113 Descending Houston Center
Mon 02:38:29 PM 30.7719 -97.4419 191° South 382 440 22,500 -1,065 Descending Houston Center
Mon 02:39:31 PM 30.6728 -97.4642 191° South 365 420 21,500 -1,016 Descending Houston Center
Mon 02:40:33 PM 30.5761 -97.4850 191° South 353 406 20,400 -1,016 Descending Houston Center
Mon 02:41:35 PM 30.4808 -97.5058 191° South 345 397 19,400 -919 Descending Houston Center
Mon 02:42:37 PM 30.3856 -97.5289 192° South 347 399 18,500 -968 Descending Houston Center
Mon 02:43:39 PM 30.3011 -97.5839 209° Southwest 346 398 17,400 -1,104 Descending Houston Center
Mon 02:44:42 PM 30.2067 -97.6494 211° Southwest 337 388 16,200 -1,056 Descending Houston Center
Mon 02:45:44 PM 30.1275 -97.7036 211° Southwest 328 377 15,200 -1,034 Descending Houston Center
Mon 02:46:09 PM 30.0917 -97.7283 211° Southwest 322 371 14,700 -1,161 Descending Houston Center
Mon 02:46:46 PM 30.0486 -97.7578 211° Southwest 305 351 14,000 -970 Descending Houston Center
Mon 02:47:48 PM 29.9800 -97.8056 211° Southwest 291 335 13,100 -484 Descending Houston Center
Mon 02:48:50 PM 29.9086 -97.8544 211° Southwest 297 342 13,000 -919 Descending Houston Center
Mon 02:49:52 PM 29.8656 -97.9367 239° Southwest 279 321 11,200 -1,839 Descending Houston Center
Mon 02:50:54 PM 29.8308 -98.0208 245° Southwest 291 335 9,200 -1,790 Descending Houston Center
Mon 02:51:56 PM 29.7931 -98.1094 244° Southwest 287 330 7,500 -1,463 Descending Houston Center
Mon 02:52:57 PM 29.7594 -98.1875 244° Southwest 267 307 6,200 -783 Descending Houston Center
Mon 02:53:51 PM 29.7339 -98.2508 245° Southwest 238 274 6,000 -104 Descending Houston Center
Mon 02:54:52 PM 29.7044 -98.3169 243° Southwest 230 265 6,000 -98 Level Houston Center
Mon 02:55:53 PM 29.7008 -98.3919 267° West 239 275 5,800 -797 Descending Houston Center
Mon 02:57:00 PM 29.6964 -98.4792 267° West 233 268 4,300 -1,235 Descending Houston Center
Mon 02:58:09 PM 29.6736 -98.5522 250° West 230 265 3,000 -595 Descending Houston Center
Mon 02:59:01 PM 29.6336 -98.5731 204° Southwest 184 212 3,100 -336 Climbing Houston Center
Mon 02:59:56 PM 29.5936 -98.5514 155° Southeast 163 188 2,400 -833 Descending Houston Center
Mon 03:00:13 PM 29.5850 -98.5400 131° Southeast 166 191 2,100 -857 Descending Houston Center
Mon 03:00:45 PM 29.5700 -98.5231 136° Southeast 146 168 1,700 -667 Descending Houston Center
Mon 03:01:16 PM 29.5594 -98.5067 127° Southeast 142 163 1,400 -452 Descending Houston Center
Mon 03:02:18 PM 29.5392 -98.4781 129° Southeast 135 155 1,000 -387 Descending Houston Center

Login

Don't have an account? Register now (free) for customized features, flight alerts, and more!